createdAt,value
2018-09-10T00:01:58.441Z,61.81
2018-09-10T00:04:26.024Z,61.37
2018-09-10T00:06:53.608Z,62.11
2018-09-10T00:09:21.137Z,62.18
2018-09-10T00:11:48.708Z,61.89
2018-09-10T00:14:16.440Z,62.70
2018-09-10T00:16:44.014Z,62.10
2018-09-10T00:19:11.531Z,62.10
2018-09-10T00:21:39.081Z,62.15
2018-09-10T00:24:06.845Z,61.90
2018-09-10T00:26:41.115Z,61.68
2018-09-10T00:29:08.685Z,61.36
2018-09-10T00:31:36.267Z,60.97
2018-09-10T00:34:03.858Z,61.85
2018-09-10T00:36:31.377Z,62.45
2018-09-10T00:38:58.918Z,61.80
2018-09-10T00:43:57.212Z,61.24
2018-09-10T00:46:24.801Z,61.43
2018-09-10T00:48:52.353Z,61.35
2018-09-10T00:51:19.929Z,61.67
2018-09-10T00:53:47.527Z,61.29
2018-09-10T00:56:15.286Z,61.25
2018-09-10T00:58:42.866Z,61.23
2018-09-10T01:01:10.401Z,61.16
2018-09-10T01:03:37.955Z,60.66
2018-09-10T01:06:05.707Z,60.97
2018-09-10T01:08:38.105Z,60.95
2018-09-10T01:11:05.858Z,60.96
2018-09-10T01:13:33.461Z,61.20
2018-09-10T01:16:00.985Z,61.17
2018-09-10T01:18:28.572Z,61.19
2018-09-10T01:20:56.349Z,61.61
2018-09-10T01:23:24.103Z,61.12
2018-09-10T01:25:51.648Z,60.64
2018-09-10T01:28:19.207Z,61.16
2018-09-10T01:30:46.805Z,60.44
2018-09-10T01:33:14.571Z,60.59
2018-09-10T01:35:42.123Z,60.02
2018-09-10T01:38:09.696Z,61.07
2018-09-10T01:40:37.236Z,61.11
2018-09-10T01:43:04.819Z,61.49
2018-09-10T01:45:32.390Z,60.47
2018-09-10T01:47:59.956Z,61.11
2018-09-10T01:50:27.479Z,61.78
2018-09-10T01:52:55.049Z,61.04
2018-09-10T01:55:22.586Z,60.96
2018-09-10T01:57:50.136Z,61.59
2018-09-10T02:00:17.694Z,60.82
2018-09-10T02:02:45.237Z,60.95
2018-09-10T02:05:12.827Z,60.28
2018-09-10T02:07:40.393Z,59.96
2018-09-10T02:10:07.915Z,60.49
2018-09-10T02:12:35.476Z,60.57
2018-09-10T02:15:03.000Z,61.35
2018-09-10T02:17:30.555Z,62.10
2018-09-10T02:19:58.101Z,61.65
2018-09-10T02:22:25.683Z,61.51
2018-09-10T02:24:53.294Z,60.82
2018-09-10T02:27:20.895Z,60.02
2018-09-10T02:29:49.588Z,61.20
2018-09-10T02:32:17.112Z,61.67
2018-09-10T02:34:44.696Z,60.69
2018-09-10T02:37:12.224Z,61.48
2018-09-10T02:39:39.818Z,61.84
2018-09-10T02:42:07.330Z,62.31
2018-09-10T02:44:34.912Z,61.69
2018-09-10T02:47:02.422Z,61.80
2018-09-10T02:49:30.269Z,62.30
2018-09-10T02:51:57.827Z,61.77
2018-09-10T02:54:25.327Z,61.65
2018-09-10T02:56:52.904Z,61.96
2018-09-10T02:59:20.488Z,61.75
2018-09-10T03:01:48.152Z,61.61
2018-09-10T03:04:15.720Z,61.00
2018-09-10T03:06:43.285Z,61.02
2018-09-10T03:09:10.798Z,61.18
2018-09-10T03:11:38.355Z,61.21
2018-09-10T03:14:05.903Z,61.42
2018-09-10T03:16:33.478Z,61.34
2018-09-10T03:19:01.077Z,62.40
2018-09-10T03:21:28.765Z,60.56
2018-09-10T03:23:56.465Z,60.66
2018-09-10T03:26:24.136Z,60.63
2018-09-10T03:28:51.651Z,59.92
2018-09-10T03:31:19.250Z,60.39
2018-09-10T03:33:46.786Z,61.16
2018-09-10T03:36:15.181Z,60.51
2018-09-10T03:38:43.871Z,61.82
2018-09-10T03:41:11.446Z,60.82
2018-09-10T03:43:39.013Z,60.55
2018-09-10T03:46:06.547Z,60.32
2018-09-10T03:48:34.127Z,60.29
2018-09-10T03:51:01.688Z,60.82
2018-09-10T03:53:29.267Z,61.85
2018-09-10T03:55:56.815Z,60.09
2018-09-10T03:58:24.384Z,60.17
2018-09-10T04:00:51.950Z,61.21
2018-09-10T04:03:19.519Z,60.67
2018-09-10T04:05:47.027Z,60.49
2018-09-10T04:08:15.213Z,59.97
2018-09-10T04:10:42.961Z,59.80
2018-09-10T04:13:10.484Z,59.45
2018-09-10T04:15:38.072Z,59.80
2018-09-10T04:18:05.615Z,59.67
2018-09-10T04:20:33.211Z,60.64
2018-09-10T04:23:00.928Z,60.88
2018-09-10T04:25:28.525Z,60.15
2018-09-10T04:27:56.084Z,60.71
2018-09-10T04:30:23.672Z,61.14
2018-09-10T04:32:51.257Z,61.76
2018-09-10T04:35:18.783Z,61.13
2018-09-10T04:37:46.350Z,61.44
2018-09-10T04:40:18.303Z,61.87
2018-09-10T04:42:45.873Z,61.60
2018-09-10T04:45:13.398Z,62.07
2018-09-10T04:47:41.015Z,62.27
2018-09-10T04:50:08.533Z,62.49
2018-09-10T04:52:36.071Z,63.05
2018-09-10T04:55:03.650Z,62.87
2018-09-10T04:57:31.206Z,62.97
2018-09-10T04:59:58.799Z,62.90
2018-09-10T05:02:26.356Z,63.35
2018-09-10T05:04:53.924Z,63.55
2018-09-10T05:07:21.448Z,63.70
2018-09-10T05:09:49.147Z,63.70
2018-09-10T05:12:16.553Z,64.25
2018-09-10T05:14:44.140Z,64.49
2018-09-10T05:17:12.627Z,65.04
2018-09-10T05:19:40.217Z,64.53
2018-09-10T05:22:07.786Z,64.57
2018-09-10T05:24:36.597Z,64.53
2018-09-10T05:27:04.147Z,64.57
2018-09-10T05:29:31.725Z,65.18
2018-09-10T05:31:59.272Z,65.43
2018-09-10T05:34:26.864Z,65.93
2018-09-10T05:36:54.515Z,65.79
2018-09-10T05:39:22.045Z,66.11
2018-09-10T05:41:49.868Z,65.94
2018-09-10T05:44:17.330Z,66.01
2018-09-10T05:46:44.915Z,66.62
2018-09-10T05:49:12.494Z,67.29
2018-09-10T05:51:40.193Z,67.41
2018-09-10T05:54:07.717Z,68.33
2018-09-10T05:56:35.285Z,68.02
2018-09-10T05:59:02.841Z,68.80
2018-09-10T06:01:30.433Z,68.98
2018-09-10T06:03:57.978Z,69.25
2018-09-10T06:06:26.745Z,69.47
2018-09-10T06:08:54.329Z,69.42
2018-09-10T06:11:21.860Z,69.31
2018-09-10T06:13:49.394Z,70.00
2018-09-10T06:16:17.006Z,70.24
2018-09-10T06:18:44.706Z,70.16
2018-09-10T06:21:15.826Z,70.45
2018-09-10T06:23:43.355Z,70.92
2018-09-10T06:26:12.974Z,70.82
2018-09-10T06:28:40.509Z,71.18
2018-09-10T06:31:08.061Z,71.33
2018-09-10T06:33:35.660Z,71.42
2018-09-10T06:36:03.178Z,71.70
2018-09-10T06:38:30.767Z,72.02
2018-09-10T06:40:58.322Z,72.05
2018-09-10T06:43:25.901Z,71.89
2018-09-10T06:45:53.463Z,72.50
2018-09-10T06:48:21.049Z,73.38
2018-09-10T06:50:48.614Z,74.06
2018-09-10T06:53:16.191Z,74.53
2018-09-10T06:55:43.949Z,74.03
2018-09-10T06:58:12.600Z,74.25
2018-09-10T07:00:41.401Z,73.67
2018-09-10T07:03:09.073Z,73.52
2018-09-10T07:05:36.868Z,74.56
2018-09-10T07:08:04.582Z,74.36
2018-09-10T07:10:32.168Z,74.51
2018-09-10T07:13:01.704Z,75.05
2018-09-10T07:15:29.758Z,74.66
2018-09-10T07:17:57.354Z,75.55
2018-09-10T07:20:24.989Z,75.17
2018-09-10T07:22:52.708Z,74.50
2018-09-10T07:25:20.303Z,74.22
2018-09-10T07:27:48.001Z,74.96
2018-09-10T07:30:15.634Z,74.02
2018-09-10T07:32:43.182Z,74.86
2018-09-10T07:35:11.001Z,75.58
2018-09-10T07:37:38.742Z,74.64
2018-09-10T07:40:07.424Z,75.23
2018-09-10T07:42:36.124Z,75.38
2018-09-10T07:45:07.222Z,74.38
2018-09-10T07:47:39.980Z,74.89
2018-09-10T07:50:08.584Z,75.16
2018-09-10T07:52:36.099Z,75.15
2018-09-10T07:55:09.107Z,75.32
2018-09-10T07:57:37.763Z,76.02
2018-09-10T08:00:05.571Z,75.55
2018-09-10T08:02:33.268Z,76.32
2018-09-10T08:05:00.844Z,76.72
2018-09-10T08:07:28.396Z,76.37
2018-09-10T08:09:55.941Z,76.11
2018-09-10T08:12:23.530Z,77.06
2018-09-10T08:14:51.073Z,75.58
2018-09-10T08:17:18.609Z,77.05
2018-09-10T08:19:46.193Z,77.34
2018-09-10T08:22:14.812Z,76.93
2018-09-10T08:24:43.501Z,77.04
2018-09-10T08:27:11.022Z,76.38
2018-09-10T08:29:39.663Z,76.97
2018-09-10T08:32:07.425Z,76.16
2018-09-10T08:34:34.951Z,75.87
2018-09-10T08:37:02.493Z,76.59
2018-09-10T08:39:30.103Z,75.83
2018-09-10T08:41:57.699Z,75.58
2018-09-10T08:44:25.269Z,75.72
2018-09-10T08:46:54.005Z,76.27
2018-09-10T08:49:25.782Z,75.83
2018-09-10T08:51:54.473Z,75.87
2018-09-10T08:54:22.333Z,75.61
2018-09-10T08:56:49.814Z,76.03
2018-09-10T08:59:17.457Z,75.33
2018-09-10T09:01:46.161Z,75.99
2018-09-10T09:04:13.744Z,75.91
2018-09-10T09:06:41.307Z,75.58
2018-09-10T09:09:08.922Z,76.18
2018-09-10T09:11:36.587Z,75.80
2018-09-10T09:14:04.396Z,75.65
2018-09-10T09:16:31.943Z,74.73
2018-09-10T09:18:59.596Z,75.16
2018-09-10T09:21:30.693Z,75.14
2018-09-10T09:23:58.299Z,74.22
2018-09-10T09:26:25.922Z,74.49
2018-09-10T09:28:54.583Z,74.63
2018-09-10T09:31:22.151Z,73.93
2018-09-10T09:33:49.866Z,73.67
2018-09-10T09:36:17.453Z,73.30
2018-09-10T09:39:00.065Z,72.71
2018-09-10T09:41:33.011Z,73.02
2018-09-10T09:44:15.454Z,73.35
2018-09-10T09:46:43.031Z,73.78
2018-09-10T09:54:55.560Z,73.13
2018-09-10T09:57:23.275Z,72.51
2018-09-10T09:59:50.863Z,72.50
2018-09-10T10:02:19.434Z,71.21
2018-09-10T10:04:50.930Z,71.42
2018-09-10T10:07:18.461Z,71.34
2018-09-10T10:09:46.156Z,70.94
2018-09-10T10:12:13.813Z,70.42
2018-09-10T10:14:41.359Z,70.30
2018-09-10T10:17:09.139Z,70.37
2018-09-10T10:19:36.681Z,70.64
2018-09-10T10:22:06.199Z,69.76
2018-09-10T10:24:33.981Z,69.63
2018-09-10T10:27:01.602Z,69.52
2018-09-10T10:29:29.155Z,69.20
2018-09-10T10:31:56.734Z,68.49
2018-09-10T10:34:24.399Z,68.63
2018-09-10T10:36:53.074Z,69.08
2018-09-10T10:39:24.033Z,69.31
2018-09-10T10:41:52.649Z,69.23
2018-09-10T10:44:21.287Z,68.80
2018-09-10T10:46:48.869Z,67.65
2018-09-10T10:49:16.490Z,67.29
2018-09-10T10:51:44.345Z,67.78
2018-09-10T10:54:12.296Z,68.38
2018-09-10T10:56:39.856Z,68.06
2018-09-10T10:59:07.555Z,66.70
2018-09-10T11:01:35.149Z,66.87
2018-09-10T11:04:03.750Z,65.31
2018-09-10T11:06:31.510Z,65.70
2018-09-10T11:09:01.164Z,65.83
2018-09-10T11:11:29.076Z,65.65
2018-09-10T11:13:56.646Z,65.50
2018-09-10T11:16:24.461Z,65.64
2018-09-10T11:18:52.249Z,66.17
2018-09-10T11:21:19.849Z,65.78
2018-09-10T11:23:47.399Z,65.16
2018-09-10T11:26:15.279Z,65.57
2018-09-10T11:28:42.834Z,65.25
2018-09-10T11:31:10.363Z,64.78
2018-09-10T11:33:38.061Z,64.25
2018-09-10T11:36:05.646Z,64.10
2018-09-10T11:38:33.408Z,64.34
2018-09-10T11:41:01.013Z,64.35
2018-09-10T11:43:29.542Z,63.82
2018-09-10T11:45:57.281Z,62.97
2018-09-10T11:48:24.872Z,62.92
2018-09-10T11:50:52.408Z,63.10
2018-09-10T11:53:26.409Z,63.08
2018-09-10T11:55:53.921Z,63.14
2018-09-10T11:58:21.839Z,62.92
2018-09-10T12:00:49.536Z,62.93
2018-09-10T12:03:18.159Z,62.62
2018-09-10T12:05:50.164Z,62.24
2018-09-10T12:08:17.806Z,63.02
2018-09-10T12:10:45.347Z,63.49
2018-09-10T12:13:12.910Z,63.86
2018-09-10T12:15:48.035Z,63.03
2018-09-10T12:18:15.561Z,63.21
2018-09-10T12:20:47.864Z,63.59
2018-09-10T12:23:15.446Z,63.72
2018-09-10T12:25:43.951Z,62.20
2018-09-10T12:28:11.522Z,62.87
2018-09-10T12:30:39.066Z,62.53
2018-09-10T12:33:06.667Z,64.07
2018-09-10T12:35:37.549Z,63.53
2018-09-10T12:38:05.078Z,63.18
2018-09-10T12:40:33.718Z,63.21
2018-09-10T12:43:01.253Z,63.52
2018-09-10T12:45:28.809Z,62.41
2018-09-10T12:47:56.423Z,63.19
2018-09-10T12:50:23.974Z,63.17
2018-09-10T12:52:51.569Z,62.70
2018-09-10T12:55:19.090Z,62.56
2018-09-10T12:57:46.671Z,62.75
2018-09-10T13:00:14.219Z,62.51
2018-09-10T13:02:41.772Z,63.40
2018-09-10T13:05:09.314Z,62.69
2018-09-10T13:07:36.911Z,62.31
2018-09-10T13:10:04.423Z,63.14
2018-09-10T13:12:32.008Z,62.42
2018-09-10T13:14:59.537Z,62.28
2018-09-10T13:17:27.050Z,62.31
2018-09-10T13:19:54.629Z,62.39
2018-09-10T13:22:22.175Z,62.70
2018-09-10T13:24:49.746Z,61.87
2018-09-10T13:27:17.264Z,61.61
2018-09-10T13:29:44.914Z,62.29
2018-09-10T13:32:12.429Z,61.18
2018-09-10T13:34:39.986Z,62.42
2018-09-10T13:37:07.572Z,61.61
2018-09-10T13:39:35.157Z,62.17
2018-09-10T13:42:02.670Z,61.81
2018-09-10T13:44:30.286Z,61.66
2018-09-10T13:46:57.850Z,61.45
2018-09-10T13:49:25.632Z,61.14
2018-09-10T13:51:53.174Z,62.08
2018-09-10T13:54:20.712Z,61.44
2018-09-10T13:56:48.278Z,61.80
2018-09-10T13:59:15.830Z,62.10
2018-09-10T14:01:43.500Z,61.34
2018-09-10T14:04:11.025Z,60.98
2018-09-10T14:06:38.616Z,61.53
2018-09-10T14:09:06.130Z,60.96
2018-09-10T14:11:33.701Z,60.89
2018-09-10T14:14:01.272Z,61.00
2018-09-10T14:16:28.849Z,60.98
2018-09-10T14:18:57.612Z,61.14
2018-09-10T14:21:25.206Z,61.48
2018-09-10T14:23:52.793Z,61.23
2018-09-10T14:26:21.511Z,61.19
2018-09-10T14:28:49.377Z,61.19
2018-09-10T14:31:16.998Z,62.12
2018-09-10T14:33:46.639Z,61.59
2018-09-10T14:36:14.381Z,61.01
2018-09-10T14:38:42.129Z,61.90
2018-09-10T14:41:10.742Z,61.16
2018-09-10T14:43:41.409Z,61.74
2018-09-10T14:46:09.153Z,61.24
2018-09-10T14:48:36.695Z,61.40
2018-09-10T14:51:04.295Z,61.80
2018-09-10T14:53:31.878Z,61.27
2018-09-10T14:55:59.448Z,61.88
2018-09-10T14:58:27.097Z,61.64
2018-09-10T15:00:54.799Z,61.63
2018-09-10T15:03:22.360Z,61.11
2018-09-10T15:05:49.966Z,60.33
2018-09-10T15:08:17.452Z,60.63
2018-09-10T15:10:46.200Z,60.12
2018-09-10T15:13:13.801Z,60.24
2018-09-10T15:15:41.367Z,60.81
2018-09-10T15:18:08.952Z,60.74
2018-09-10T15:20:36.659Z,60.34
2018-09-10T15:23:05.783Z,60.38
2018-09-10T15:25:33.346Z,59.79
2018-09-10T15:28:00.926Z,60.11
2018-09-10T15:30:30.449Z,60.65
2018-09-10T15:32:58.012Z,60.47
2018-09-10T15:35:25.628Z,60.14
2018-09-10T15:37:53.215Z,60.63
2018-09-10T15:40:20.947Z,60.67
2018-09-10T15:42:48.478Z,60.24
2018-09-10T15:45:16.078Z,60.34
2018-09-10T15:47:43.611Z,59.92
2018-09-10T15:50:11.184Z,60.09
2018-09-10T15:52:38.744Z,60.30
2018-09-10T15:55:06.318Z,59.92
2018-09-10T15:57:33.996Z,60.30
2018-09-10T16:00:01.578Z,60.03
2018-09-10T16:02:29.143Z,60.09
2018-09-10T16:04:56.711Z,59.79
2018-09-10T16:07:27.559Z,59.98
2018-09-10T16:09:55.139Z,59.81
2018-09-10T16:12:23.610Z,59.46
2018-09-10T16:14:51.606Z,59.78
2018-09-10T16:17:21.412Z,60.14
2018-09-10T16:19:49.027Z,59.80
2018-09-10T16:22:16.686Z,59.86
2018-09-10T16:24:44.299Z,59.93
2018-09-10T16:27:11.869Z,60.16
2018-09-10T16:29:43.294Z,59.77
2018-09-10T16:32:12.945Z,60.08
2018-09-10T16:34:44.181Z,60.27
2018-09-10T16:37:12.776Z,59.58
2018-09-10T16:39:40.327Z,60.11
2018-09-10T16:42:09.841Z,61.06
2018-09-10T16:44:39.415Z,60.53
2018-09-10T16:47:09.042Z,60.77
2018-09-10T16:49:36.615Z,60.60
2018-09-10T16:52:04.204Z,60.08
2018-09-10T16:54:31.879Z,60.21
2018-09-10T16:56:59.468Z,60.46
2018-09-10T16:59:27.068Z,60.73
2018-09-10T17:01:54.750Z,61.38
2018-09-10T17:04:22.306Z,61.42
2018-09-10T17:06:49.892Z,61.03
2018-09-10T17:09:17.505Z,61.29
2018-09-10T17:11:45.065Z,61.47
2018-09-10T17:14:16.086Z,61.35
2018-09-10T17:16:43.613Z,61.29
2018-09-10T17:19:11.174Z,61.35
2018-09-10T17:21:38.776Z,61.64
2018-09-10T17:24:06.350Z,62.00
2018-09-10T17:26:33.946Z,61.60
2018-09-10T17:29:01.481Z,61.55
2018-09-10T17:31:29.010Z,61.77
2018-09-10T17:33:56.588Z,62.06
2018-09-10T17:36:24.169Z,61.55
2018-09-10T17:38:51.831Z,61.84
2018-09-10T17:41:21.411Z,62.27
2018-09-10T17:43:48.979Z,62.63
2018-09-10T17:46:16.510Z,62.61
2018-09-10T17:48:44.137Z,62.58
2018-09-10T17:51:11.687Z,62.23
2018-09-10T17:53:39.280Z,62.54
2018-09-10T17:56:06.810Z,62.42
2018-09-10T17:58:36.414Z,62.31
2018-09-10T18:01:03.968Z,62.37
2018-09-10T18:03:31.555Z,62.98
2018-09-10T18:05:59.150Z,63.25
2018-09-10T18:08:26.677Z,63.21
2018-09-10T18:10:54.270Z,63.71
2018-09-10T18:13:21.890Z,63.56
2018-09-10T18:15:49.511Z,63.66
2018-09-10T18:18:17.096Z,64.03
2018-09-10T18:20:44.678Z,63.50
2018-09-10T18:23:12.232Z,63.81
2018-09-10T18:25:39.764Z,63.52
2018-09-10T18:28:07.327Z,63.25
2018-09-10T18:30:34.843Z,63.29
2018-09-10T18:33:02.421Z,63.45
2018-09-10T18:35:29.964Z,63.84
2018-09-10T18:37:57.538Z,63.84
2018-09-10T18:40:25.089Z,63.80
2018-09-10T18:42:52.709Z,64.21
2018-09-10T18:45:20.278Z,63.68
2018-09-10T18:47:48.047Z,63.71
2018-09-10T18:50:15.603Z,63.98
2018-09-10T18:52:43.114Z,65.38
2018-09-10T18:55:10.700Z,65.05
2018-09-10T18:57:38.212Z,65.10
2018-09-10T19:00:05.768Z,65.81
2018-09-10T19:02:33.355Z,65.95
2018-09-10T19:05:00.958Z,65.51
2018-09-10T19:07:28.526Z,65.53
2018-09-10T19:09:56.207Z,65.67
2018-09-10T19:12:23.717Z,66.07
2018-09-10T19:14:51.257Z,66.94
2018-09-10T19:17:18.859Z,66.72
2018-09-10T19:19:46.460Z,66.28
2018-09-10T19:22:13.992Z,66.16
2018-09-10T19:24:41.568Z,66.26
2018-09-10T19:27:09.109Z,66.25
2018-09-10T19:29:36.649Z,66.43
2018-09-10T19:32:04.202Z,66.93
2018-09-10T19:34:31.715Z,66.74
2018-09-10T19:36:59.273Z,66.73
2018-09-10T19:39:26.838Z,66.57
2018-09-10T19:41:59.209Z,66.75
2018-09-10T19:44:26.771Z,66.74
2018-09-10T19:46:54.319Z,66.48
2018-09-10T19:49:21.904Z,66.75
2018-09-10T19:51:49.429Z,66.84
2018-09-10T19:54:16.996Z,66.77
2018-09-10T19:56:44.574Z,66.71
2018-09-10T19:59:13.330Z,66.32
2018-09-10T20:01:40.872Z,66.82
2018-09-10T20:04:08.465Z,66.78
2018-09-10T20:06:36.015Z,66.46
2018-09-10T20:09:03.745Z,66.80
2018-09-10T20:11:31.288Z,67.26
2018-09-10T20:13:58.974Z,66.40
2018-09-10T20:16:26.487Z,66.76
2018-09-10T20:18:54.187Z,66.74
2018-09-10T20:21:21.764Z,67.03
2018-09-10T20:23:49.289Z,67.01
2018-09-10T20:26:16.876Z,67.24
2018-09-10T20:28:44.433Z,66.71
2018-09-10T20:31:11.979Z,67.01
2018-09-10T20:33:39.558Z,67.54
2018-09-10T20:36:07.062Z,67.40
2018-09-10T20:38:34.614Z,67.89
2018-09-10T20:41:02.131Z,67.75
2018-09-10T20:43:29.702Z,67.59
2018-09-10T20:45:58.359Z,67.60
2018-09-10T20:48:25.951Z,68.05
2018-09-10T20:50:57.854Z,68.07
2018-09-10T20:53:25.449Z,68.05
2018-09-10T20:55:53.025Z,68.10
2018-09-10T20:58:20.544Z,68.47
2018-09-10T21:00:49.259Z,68.82
2018-09-10T21:03:17.042Z,67.86
2018-09-10T21:05:47.875Z,68.37
2018-09-10T21:08:17.536Z,68.70
2018-09-10T21:10:47.118Z,68.71
2018-09-10T21:13:14.632Z,68.13
2018-09-10T21:15:44.183Z,68.67
2018-09-10T21:18:11.752Z,68.56
2018-09-10T21:20:40.299Z,68.34
2018-09-10T21:23:09.953Z,68.07
2018-09-10T21:25:37.900Z,68.68
2018-09-10T21:28:05.984Z,68.46
2018-09-10T21:30:33.623Z,68.32
2018-09-10T21:33:01.305Z,67.89
2018-09-10T21:35:28.965Z,68.05
2018-09-10T21:37:56.623Z,67.95
2018-09-10T21:40:26.174Z,68.08
2018-09-10T21:42:53.874Z,67.70
2018-09-10T21:45:21.430Z,68.24
2018-09-10T21:47:50.078Z,68.15
2018-09-10T21:50:17.601Z,68.21
2018-09-10T21:52:50.211Z,68.84
2018-09-10T21:55:17.751Z,68.85
2018-09-10T21:57:45.308Z,68.79
2018-09-10T22:00:12.907Z,69.24
2018-09-10T22:02:41.600Z,69.31
2018-09-10T22:05:09.126Z,69.05
2018-09-10T22:07:36.698Z,68.94
2018-09-10T22:10:04.275Z,68.84
2018-09-10T22:12:31.815Z,70.03
2018-09-10T22:14:59.405Z,69.66
2018-09-10T22:17:26.955Z,69.57
2018-09-10T22:19:55.643Z,70.20
2018-09-10T22:22:24.498Z,70.56
2018-09-10T22:24:52.089Z,69.64
2018-09-10T22:27:19.858Z,70.14
2018-09-10T22:29:51.351Z,70.59
2018-09-10T22:32:18.873Z,69.97
2018-09-10T22:34:46.404Z,70.02
2018-09-10T22:37:13.969Z,70.33
2018-09-10T22:39:41.516Z,69.87
2018-09-10T22:42:09.081Z,70.46
2018-09-10T22:44:36.626Z,70.77
2018-09-10T22:47:04.190Z,69.94
2018-09-10T22:49:31.873Z,69.98
2018-09-10T22:51:59.431Z,70.14
2018-09-10T22:54:27.024Z,70.95
2018-09-10T22:56:54.551Z,71.16
2018-09-10T22:59:22.156Z,70.71
2018-09-10T23:01:49.757Z,71.00
2018-09-10T23:04:17.302Z,72.26
2018-09-10T23:06:45.258Z,71.15
2018-09-10T23:09:16.602Z,71.54
2018-09-10T23:11:44.483Z,71.83
2018-09-10T23:14:12.469Z,72.10
2018-09-10T23:16:40.518Z,71.42
2018-09-10T23:19:08.191Z,72.91
2018-09-10T23:21:37.999Z,72.18
2018-09-10T23:24:05.553Z,74.12
2018-09-10T23:26:33.120Z,74.51
2018-09-10T23:29:06.303Z,74.25
2018-09-10T23:31:33.971Z,73.71
2018-09-10T23:34:01.568Z,73.21
2018-09-10T23:36:37.604Z,72.74
2018-09-10T23:39:05.119Z,72.70
2018-09-10T23:41:32.696Z,72.57
2018-09-10T23:44:00.211Z,71.75
2018-09-10T23:46:27.799Z,71.69
2018-09-10T23:48:57.306Z,71.86
2018-09-10T23:51:24.910Z,72.54
2018-09-10T23:53:52.516Z,72.32
2018-09-10T23:56:20.090Z,72.64
2018-09-10T23:58:47.660Z,72.09
